Lima, OH

10:59 PM EDT on August 22, 2014 (GMT -0400)
West side Lima OH | Change Station
CLOSE
Current Station
Personal Weather Station
Location: Lima, OH
Elevation: 870 ft
Nearby Weather Stations

Elev 870 ft 40.75 °N, 84.13 °W | Updated 29 seconds ago

Mostly Cloudy
Mostly Cloudy
76.1 °F
Feels Like 76 °F
N
0.0
Wind Variable Wind from NW
Gusts 0.0 mph

Today
High -- | Low -- °F
--% Chance of Precip.
Yesterday
High -- | Low -- °F
Precip. -- in
6:53 AM 8:24 PM
Waning Crescent, 5% visible
Pressure 29.99 in
Visibility 9.0 miles
Clouds Few 6500 ft
Mostly Cloudy 8000 ft
Heat Index 76 °F
Dew Point 72 °F
Humidity 88%
Rainfall 0.00 in
Snow Depth Not available.
UV 0 out of 12
Pollen 9.40 out of 12
Air Quality Not available.
Flu Activity Not available.
METAR KAOH 230253Z AUTO 14003KT 9SM FEW065 BKN080 24/22 A3001 RMK AO2 SLP155 T02390222 53015

More Conditions Fewer Conditions

Pressure 29.99 in
Visibility 9.0 miles
Clouds Few 6500 ft
Mostly Cloudy 8000 ft
Heat Index 76 °F
Dew Point 72 °F
Humidity 88%
Rainfall 0.00 in
Snow Depth Not available.
UV 0 out of 12
Pollen 9.40 out of 12
Air Quality Not available.
Flu Activity Not available.
METAR KAOH 230253Z AUTO 14003KT 9SM FEW065 BKN080 24/22 A3001 RMK AO2 SLP155 T02390222 53015

More Conditions Fewer Conditions

10-Day Weather Forecast

Almanac

Astronomy

Aug. 22, 2014 Rise Set
Actual Time 6:53 AM EDT 8:24 PM EDT
Civil Twilight 6:24 AM EDT 8:52 PM EDT
Nautical Twilight 5:49 AM EDT 9:27 PM EDT
Astronomical Twilight 5:12 AM EDT 10:04 PM EDT
Moon 4:14 AM EDT (8/22) 6:32 PM EDT (8/22)
Length of Visible Light 14h 28m
Length of Day
13h 30m
Tomorrow will be 2m 29s shorter.
Waning Crescent, 5% of the Moon is Illuminated
Today
Waning Crescent
Aug 25
New
Sep 2
First Quarter
Sep 8
Full
Sep 15
Last Quarter

Today's Extremes

State Highs State Lows

Community

WunderPhotos

Upload Photos

1,746,348 photos uploaded!

WunderBlogs® & News

Nearby

Snow Depth

Station Depth Elevation
No new snow has been reported.

Earthquake Activity

City Distance Mag. Time & Date
No recent earthquake activity has been reported nearby.
Minimum magnitude displayed is 2.5.

Coastal Water Temperatures

Place Temperature
No Stations Reporting

Nearby Weather Stations